createdAt,value
2018-03-22T00:00:15.534Z,20.44
2018-03-22T00:01:15.544Z,20.44
2018-03-22T00:02:15.529Z,20.54
2018-03-22T00:03:15.532Z,20.42
2018-03-22T00:04:15.523Z,20.46
2018-03-22T00:05:15.527Z,20.42
2018-03-22T00:06:15.519Z,20.48
2018-03-22T00:07:15.504Z,20.44
2018-03-22T00:08:15.498Z,20.50
2018-03-22T00:09:15.502Z,20.40
2018-03-22T00:10:15.503Z,20.50
2018-03-22T00:11:15.499Z,20.48
2018-03-22T00:12:15.489Z,20.44
2018-03-22T00:13:15.472Z,20.53
2018-03-22T00:14:15.469Z,20.57
2018-03-22T00:15:15.469Z,20.56
2018-03-22T00:16:15.461Z,20.44
2018-03-22T00:17:15.477Z,20.54
2018-03-22T00:18:15.459Z,20.58
2018-03-22T00:19:15.448Z,20.56
2018-03-22T00:20:15.449Z,20.57
2018-03-22T00:21:15.444Z,20.60
2018-03-22T00:22:15.432Z,20.56
2018-03-22T00:23:15.449Z,20.61
2018-03-22T00:24:15.428Z,20.60
2018-03-22T00:25:15.425Z,20.60
2018-03-22T00:26:15.404Z,20.61
2018-03-22T00:27:15.412Z,20.58
2018-03-22T00:28:15.399Z,20.56
2018-03-22T00:29:15.382Z,20.60
2018-03-22T00:30:15.402Z,20.66
2018-03-22T00:31:15.382Z,20.58
2018-03-22T00:32:15.375Z,20.60
2018-03-22T00:33:15.374Z,20.61
2018-03-22T00:34:15.367Z,20.60
2018-03-22T00:35:15.372Z,20.61
2018-03-22T00:36:15.365Z,20.61
2018-03-22T00:37:15.355Z,20.61
2018-03-22T00:38:15.352Z,20.57
2018-03-22T00:39:15.359Z,20.73
2018-03-22T00:40:15.353Z,20.64
2018-03-22T00:41:15.333Z,20.61
2018-03-22T00:42:15.327Z,20.72
2018-03-22T00:43:15.325Z,20.61
2018-03-22T00:44:15.328Z,20.73
2018-03-22T00:45:15.314Z,20.61
2018-03-22T00:46:15.308Z,20.64
2018-03-22T00:47:15.311Z,20.68
2018-03-22T00:48:15.309Z,20.61
2018-03-22T00:49:15.291Z,20.69
2018-03-22T00:50:15.298Z,20.61
2018-03-22T00:51:15.284Z,20.69
2018-03-22T00:52:15.283Z,20.60
2018-03-22T00:53:15.263Z,20.60
2018-03-22T00:54:15.283Z,20.75
2018-03-22T00:55:15.262Z,20.60
2018-03-22T00:56:15.256Z,20.63
2018-03-22T00:57:15.272Z,20.57
2018-03-22T00:58:15.249Z,20.64
2018-03-22T00:59:15.253Z,20.61
2018-03-22T01:00:15.239Z,20.58
2018-03-22T01:01:15.243Z,20.61
2018-03-22T01:02:15.229Z,20.64
2018-03-22T01:03:15.222Z,20.60
2018-03-22T01:04:15.223Z,20.60
2018-03-22T01:05:15.219Z,20.60
2018-03-22T01:06:15.212Z,20.60
2018-03-22T01:07:15.200Z,20.60
2018-03-22T01:08:15.199Z,20.57
2018-03-22T01:09:15.203Z,20.61
2018-03-22T01:10:15.196Z,20.57
2018-03-22T01:11:15.189Z,20.57
2018-03-22T01:12:15.178Z,20.57
2018-03-22T01:13:15.193Z,20.57
2018-03-22T01:14:15.176Z,20.56
2018-03-22T01:15:15.172Z,20.56
2018-03-22T01:16:15.191Z,20.53
2018-03-22T01:17:15.167Z,20.58
2018-03-22T01:18:15.161Z,20.58
2018-03-22T01:19:15.148Z,20.56
2018-03-22T01:20:15.143Z,20.58
2018-03-22T01:21:15.133Z,20.57
2018-03-22T01:22:15.136Z,20.58
2018-03-22T01:23:15.132Z,20.54
2018-03-22T01:24:15.122Z,20.44
2018-03-22T01:25:15.113Z,20.42
2018-03-22T01:26:15.115Z,20.46
2018-03-22T01:27:15.109Z,20.44
2018-03-22T01:28:15.105Z,20.50
2018-03-22T01:29:15.095Z,20.44
2018-03-22T01:30:15.085Z,20.44
2018-03-22T01:31:15.112Z,20.50
2018-03-22T01:32:15.080Z,20.46
2018-03-22T01:33:15.078Z,20.42
2018-03-22T01:34:15.069Z,20.41
2018-03-22T01:35:15.068Z,20.48
2018-03-22T01:36:15.059Z,20.51
2018-03-22T01:37:15.055Z,20.51
2018-03-22T01:38:15.048Z,20.51
2018-03-22T01:39:15.051Z,20.46
2018-03-22T01:40:15.038Z,20.48
2018-03-22T01:41:15.030Z,20.41
2018-03-22T01:42:15.030Z,20.50
2018-03-22T01:43:15.021Z,20.48
2018-03-22T01:44:15.033Z,20.42
2018-03-22T01:45:15.013Z,20.53
2018-03-22T01:46:15.010Z,20.44
2018-03-22T01:47:15.004Z,20.50
2018-03-22T01:48:15.000Z,20.54
2018-03-22T01:49:15.005Z,20.41
2018-03-22T01:50:14.998Z,20.60
2018-03-22T01:51:14.978Z,20.56
2018-03-22T01:52:14.980Z,20.58
2018-03-22T01:53:14.978Z,20.58
2018-03-22T01:54:14.978Z,20.61
2018-03-22T01:55:14.971Z,20.58
2018-03-22T01:56:14.958Z,20.57
2018-03-22T01:57:14.957Z,20.60
2018-03-22T01:58:14.948Z,20.61
2018-03-22T01:59:14.945Z,20.60
2018-03-22T02:00:14.945Z,20.57
2018-03-22T02:01:14.938Z,20.53
2018-03-22T02:02:14.933Z,20.66
2018-03-22T02:03:14.931Z,20.69
2018-03-22T02:04:14.935Z,20.57
2018-03-22T02:05:14.930Z,20.64
2018-03-22T02:06:14.911Z,20.58
2018-03-22T02:07:14.918Z,20.57
2018-03-22T02:08:14.903Z,20.61
2018-03-22T02:09:14.899Z,20.66
2018-03-22T02:10:14.890Z,20.63
2018-03-22T02:11:14.906Z,20.64
2018-03-22T02:12:14.884Z,20.61
2018-03-22T02:13:14.878Z,20.64
2018-03-22T02:14:14.874Z,20.68
2018-03-22T02:15:14.876Z,20.68
2018-03-22T02:16:14.863Z,20.68
2018-03-22T02:17:14.854Z,20.68
2018-03-22T02:18:14.854Z,20.58
2018-03-22T02:19:14.841Z,20.69
2018-03-22T02:20:14.854Z,20.60
2018-03-22T02:21:14.829Z,20.66
2018-03-22T02:22:14.858Z,20.64
2018-03-22T02:23:14.831Z,20.69
2018-03-22T02:24:14.824Z,20.71
2018-03-22T02:25:14.819Z,20.66
2018-03-22T02:26:14.814Z,20.69
2018-03-22T02:27:14.809Z,20.60
2018-03-22T02:28:14.831Z,20.64
2018-03-22T02:29:14.800Z,20.64
2018-03-22T02:30:14.800Z,20.75
2018-03-22T02:31:14.795Z,20.72
2018-03-22T02:32:14.799Z,20.61
2018-03-22T02:33:14.779Z,20.69
2018-03-22T02:34:14.780Z,20.72
2018-03-22T02:35:14.769Z,20.64
2018-03-22T02:36:14.765Z,20.72
2018-03-22T02:37:14.759Z,20.66
2018-03-22T02:38:14.766Z,20.64
2018-03-22T02:39:14.751Z,20.68
2018-03-22T02:40:14.740Z,20.61
2018-03-22T02:41:14.740Z,20.53
2018-03-22T02:42:14.735Z,20.75
2018-03-22T02:43:14.732Z,20.60
2018-03-22T02:44:14.721Z,20.63
2018-03-22T02:45:14.715Z,20.71
2018-03-22T02:46:14.711Z,20.63
2018-03-22T02:47:14.712Z,20.69
2018-03-22T02:48:14.727Z,20.57
2018-03-22T02:49:14.695Z,20.64
2018-03-22T02:50:14.693Z,20.61
2018-03-22T02:51:14.682Z,20.60
2018-03-22T02:52:14.704Z,20.63
2018-03-22T02:53:14.685Z,20.60
2018-03-22T02:54:14.669Z,20.60
2018-03-22T02:55:14.669Z,20.57
2018-03-22T02:56:14.671Z,20.61
2018-03-22T02:57:14.658Z,20.60
2018-03-22T02:58:14.652Z,20.64
2018-03-22T02:59:14.654Z,20.61
2018-03-22T03:00:14.650Z,20.60
2018-03-22T03:01:14.635Z,20.64
2018-03-22T03:02:14.627Z,20.64
2018-03-22T03:03:14.626Z,20.63
2018-03-22T03:04:14.623Z,20.63
2018-03-22T03:05:14.618Z,20.58
2018-03-22T03:06:14.611Z,20.53
2018-03-22T03:07:14.611Z,20.57
2018-03-22T03:08:14.601Z,20.60
2018-03-22T03:09:14.596Z,20.48
2018-03-22T03:10:14.596Z,20.46
2018-03-22T03:11:14.581Z,20.54
2018-03-22T03:12:14.596Z,20.40
2018-03-22T03:13:14.582Z,20.50
2018-03-22T03:14:14.572Z,20.44
2018-03-22T03:15:14.577Z,20.51
2018-03-22T03:16:14.560Z,20.56
2018-03-22T03:17:14.557Z,20.42
2018-03-22T03:18:14.547Z,20.54
2018-03-22T03:19:14.551Z,20.56
2018-03-22T03:20:14.545Z,20.53
2018-03-22T03:21:14.540Z,20.56
2018-03-22T03:22:14.531Z,20.54
2018-03-22T03:23:14.531Z,20.51
2018-03-22T03:24:14.521Z,20.53
2018-03-22T03:25:14.520Z,20.58
2018-03-22T03:26:14.513Z,20.54
2018-03-22T03:27:14.515Z,20.54
2018-03-22T03:28:14.502Z,20.58
2018-03-22T03:29:14.501Z,20.58
2018-03-22T03:30:14.498Z,20.60
2018-03-22T03:31:14.491Z,20.57
2018-03-22T03:32:14.480Z,20.58
2018-03-22T03:33:14.486Z,20.60
2018-03-22T03:34:14.477Z,20.61
2018-03-22T03:35:14.460Z,20.72
2018-03-22T03:36:14.460Z,20.61
2018-03-22T03:37:14.458Z,20.64
2018-03-22T03:38:14.451Z,20.61
2018-03-22T03:39:14.447Z,20.60
2018-03-22T03:40:14.447Z,20.64
2018-03-22T03:41:14.435Z,20.69
2018-03-22T03:42:14.436Z,20.63
2018-03-22T03:43:14.427Z,20.63
2018-03-22T03:44:14.432Z,20.68
2018-03-22T03:45:14.420Z,20.63
2018-03-22T03:46:14.412Z,20.71
2018-03-22T03:47:14.406Z,20.66
2018-03-22T03:48:14.410Z,20.61
2018-03-22T03:49:14.400Z,20.73
2018-03-22T03:50:14.397Z,20.75
2018-03-22T03:51:14.392Z,20.63
2018-03-22T03:52:14.387Z,20.73
2018-03-22T03:53:14.376Z,20.66
2018-03-22T03:54:14.374Z,20.71
2018-03-22T03:55:14.367Z,20.71
2018-03-22T03:56:14.361Z,20.75
2018-03-22T03:57:14.365Z,20.69
2018-03-22T03:58:14.356Z,20.68
2018-03-22T03:59:14.360Z,20.61
2018-03-22T04:00:14.346Z,20.72
2018-03-22T04:01:14.354Z,20.71
2018-03-22T04:02:14.332Z,20.73
2018-03-22T04:03:14.331Z,20.76
2018-03-22T04:04:14.322Z,20.79
2018-03-22T04:05:14.323Z,20.72
2018-03-22T04:06:14.311Z,20.68
2018-03-22T04:07:14.310Z,20.73
2018-03-22T04:08:14.301Z,20.61
2018-03-22T04:09:14.303Z,20.72
2018-03-22T04:10:14.296Z,20.57
2018-03-22T04:11:14.288Z,20.68
2018-03-22T04:12:14.292Z,20.58
2018-03-22T04:13:14.286Z,20.61
2018-03-22T04:14:14.282Z,20.69
2018-03-22T04:15:14.276Z,20.61
2018-03-22T04:16:14.262Z,20.58
2018-03-22T04:17:14.262Z,20.66
2018-03-22T04:18:14.262Z,20.64
2018-03-22T04:19:14.262Z,20.64
2018-03-22T04:20:14.256Z,20.68
2018-03-22T04:21:14.239Z,20.69
2018-03-22T04:22:14.237Z,20.60
2018-03-22T04:23:14.226Z,20.69
2018-03-22T04:24:14.226Z,20.69
2018-03-22T04:25:14.223Z,20.66
2018-03-22T04:26:14.222Z,20.57
2018-03-22T04:27:14.236Z,20.61
2018-03-22T04:28:14.212Z,20.61
2018-03-22T04:29:14.198Z,20.61
2018-03-22T04:30:14.201Z,20.58
2018-03-22T04:31:14.183Z,20.58
2018-03-22T04:32:14.188Z,20.60
2018-03-22T04:33:14.182Z,20.60
2018-03-22T04:34:14.190Z,20.60
2018-03-22T04:35:14.183Z,20.64
2018-03-22T04:36:14.172Z,20.60
2018-03-22T04:37:14.169Z,20.58
2018-03-22T04:38:14.162Z,20.63
2018-03-22T04:39:14.152Z,20.60
2018-03-22T04:40:14.148Z,20.57
2018-03-22T04:41:14.136Z,20.57
2018-03-22T04:42:14.138Z,20.57
2018-03-22T04:43:14.124Z,20.60
2018-03-22T04:44:14.128Z,20.57
2018-03-22T04:45:14.112Z,20.58
2018-03-22T04:46:14.112Z,20.56
2018-03-22T04:47:14.112Z,20.48
2018-03-22T04:48:14.118Z,20.57
2018-03-22T04:49:14.096Z,20.57
2018-03-22T04:50:14.108Z,20.57
2018-03-22T04:51:14.099Z,20.58
2018-03-22T04:52:14.081Z,20.54
2018-03-22T04:53:14.082Z,20.58
2018-03-22T04:54:14.080Z,20.51
2018-03-22T04:55:14.074Z,20.60
2018-03-22T04:56:14.061Z,20.57
2018-03-22T04:57:14.063Z,20.51
2018-03-22T04:58:14.053Z,20.58
2018-03-22T04:59:14.130Z,20.58
2018-03-22T05:00:14.052Z,20.58
2018-03-22T05:01:14.050Z,20.58
2018-03-22T05:02:14.036Z,20.57
2018-03-22T05:03:14.041Z,20.54
2018-03-22T05:04:14.027Z,20.57
2018-03-22T05:05:14.032Z,20.56
2018-03-22T05:06:14.020Z,20.60
2018-03-22T05:07:14.021Z,20.58
2018-03-22T05:08:14.009Z,20.60
2018-03-22T05:09:14.000Z,20.60
2018-03-22T05:10:14.001Z,20.60
2018-03-22T05:11:13.994Z,20.60
2018-03-22T05:12:13.983Z,20.57
2018-03-22T05:13:13.977Z,20.66
2018-03-22T05:14:13.977Z,20.56
2018-03-22T05:15:13.989Z,20.56
2018-03-22T05:16:13.962Z,20.61
2018-03-22T05:17:13.958Z,20.66
2018-03-22T05:18:13.961Z,20.60
2018-03-22T05:19:13.947Z,20.68
2018-03-22T05:20:13.957Z,20.60
2018-03-22T05:21:13.944Z,20.68
2018-03-22T05:22:13.935Z,20.69
2018-03-22T05:23:13.933Z,20.60
2018-03-22T05:24:13.933Z,20.64
2018-03-22T05:25:13.922Z,20.61
2018-03-22T05:26:13.918Z,20.61
2018-03-22T05:27:13.912Z,20.63
2018-03-22T05:28:13.901Z,20.72
2018-03-22T05:29:13.914Z,20.68
2018-03-22T05:30:13.899Z,20.68
2018-03-22T05:31:13.897Z,20.60
2018-03-22T05:32:13.887Z,20.64
2018-03-22T05:33:13.878Z,20.60
2018-03-22T05:34:13.877Z,20.64
2018-03-22T05:35:13.872Z,20.58
2018-03-22T05:36:13.863Z,20.72
2018-03-22T05:37:13.864Z,20.78
2018-03-22T05:38:13.862Z,20.72
2018-03-22T05:39:13.847Z,20.69
2018-03-22T05:40:13.842Z,20.69
2018-03-22T05:41:13.848Z,20.71
2018-03-22T05:42:13.842Z,20.76
2018-03-22T05:43:13.833Z,20.71
2018-03-22T05:44:13.827Z,20.73
2018-03-22T05:45:13.814Z,20.73
2018-03-22T05:46:13.823Z,20.79
2018-03-22T05:47:13.815Z,20.72
2018-03-22T05:48:13.812Z,20.75
2018-03-22T05:49:13.815Z,20.79
2018-03-22T05:50:13.818Z,20.79
2018-03-22T05:51:13.793Z,20.72
2018-03-22T05:52:13.807Z,20.76
2018-03-22T05:53:13.793Z,20.85
2018-03-22T05:54:13.774Z,20.81
2018-03-22T05:55:13.783Z,20.71
2018-03-22T05:56:13.772Z,20.78
2018-03-22T05:57:13.764Z,20.76
2018-03-22T05:58:13.768Z,20.69
2018-03-22T05:59:13.762Z,20.73
2018-03-22T06:00:13.758Z,20.78
2018-03-22T06:01:13.737Z,20.69
2018-03-22T06:02:13.737Z,20.69
2018-03-22T06:03:13.739Z,20.68
2018-03-22T06:04:13.737Z,20.68
2018-03-22T06:05:13.737Z,20.78
2018-03-22T06:06:13.721Z,20.76
2018-03-22T06:07:13.711Z,20.66
2018-03-22T06:08:13.709Z,20.61
2018-03-22T06:09:13.709Z,20.72
2018-03-22T06:10:13.704Z,20.72
2018-03-22T06:11:13.692Z,20.69
2018-03-22T06:12:13.689Z,20.69
2018-03-22T06:13:13.694Z,20.71
2018-03-22T06:14:13.683Z,20.69
2018-03-22T06:15:13.684Z,20.68
2018-03-22T06:16:13.674Z,20.73
2018-03-22T06:17:13.663Z,20.61
2018-03-22T06:18:13.663Z,20.61
2018-03-22T06:19:13.668Z,20.64
2018-03-22T06:20:13.653Z,20.66
2018-03-22T06:21:13.649Z,20.66
2018-03-22T06:22:13.650Z,20.64
2018-03-22T06:23:13.639Z,20.66
2018-03-22T06:24:13.623Z,20.57
2018-03-22T06:25:13.633Z,20.73
2018-03-22T06:26:13.622Z,20.63
2018-03-22T06:27:13.672Z,20.57
2018-03-22T06:28:13.613Z,20.63
2018-03-22T06:29:13.609Z,20.61
2018-03-22T06:30:13.601Z,20.57
2018-03-22T06:31:13.593Z,20.64
2018-03-22T06:32:13.599Z,20.61
2018-03-22T06:33:13.584Z,20.60
2018-03-22T06:34:13.585Z,20.60
2018-03-22T06:35:13.588Z,20.58
2018-03-22T06:36:13.565Z,20.53
2018-03-22T06:37:13.580Z,20.54
2018-03-22T06:38:13.560Z,20.60
2018-03-22T06:39:13.553Z,20.58
2018-03-22T06:40:13.554Z,20.54
2018-03-22T06:41:13.551Z,20.56
2018-03-22T06:42:13.540Z,20.56
2018-03-22T06:43:13.542Z,20.60
2018-03-22T06:44:13.535Z,20.58
2018-03-22T06:45:13.524Z,20.56
2018-03-22T06:46:13.521Z,20.56
2018-03-22T06:47:13.515Z,20.56
2018-03-22T06:48:13.519Z,20.44
2018-03-22T06:49:13.509Z,20.57
2018-03-22T06:50:13.502Z,20.56
2018-03-22T06:51:13.501Z,20.56
2018-03-22T06:52:13.490Z,20.44
2018-03-22T06:53:13.478Z,20.44
2018-03-22T06:54:13.479Z,20.58
2018-03-22T06:55:13.491Z,20.53
2018-03-22T06:56:13.475Z,20.48
2018-03-22T06:57:13.467Z,20.60
2018-03-22T06:58:13.471Z,20.42
2018-03-22T06:59:13.459Z,20.58
2018-03-22T07:00:13.449Z,20.60
2018-03-22T07:01:13.450Z,20.42
2018-03-22T07:02:13.464Z,20.48
2018-03-22T07:03:13.430Z,20.50
2018-03-22T07:04:13.443Z,20.57
2018-03-22T07:05:13.429Z,20.50
2018-03-22T07:06:13.430Z,20.54
2018-03-22T07:07:13.405Z,20.41
2018-03-22T07:08:13.407Z,20.56
2018-03-22T07:09:13.409Z,20.57
2018-03-22T07:10:13.404Z,20.44
2018-03-22T07:11:13.395Z,20.53
2018-03-22T07:12:13.405Z,20.56
2018-03-22T07:13:13.393Z,20.58
2018-03-22T07:14:13.379Z,20.54
2018-03-22T07:15:13.381Z,20.58
2018-03-22T07:16:13.384Z,20.54
2018-03-22T07:17:13.372Z,20.60
2018-03-22T07:18:13.383Z,20.56
2018-03-22T07:19:13.361Z,20.57
2018-03-22T07:20:13.355Z,20.54
2018-03-22T07:21:13.345Z,20.60
2018-03-22T07:22:13.345Z,20.61
2018-03-22T07:23:13.340Z,20.64
2018-03-22T07:24:13.324Z,20.61
2018-03-22T07:25:13.325Z,20.57
2018-03-22T07:26:13.325Z,20.63
2018-03-22T07:27:13.313Z,20.57
2018-03-22T07:28:13.321Z,20.64
2018-03-22T07:29:13.314Z,20.61
2018-03-22T07:30:13.353Z,20.64
2018-03-22T07:31:13.292Z,20.63
2018-03-22T07:32:13.279Z,20.57
2018-03-22T07:33:13.290Z,20.64
2018-03-22T07:34:13.291Z,20.64
2018-03-22T07:35:13.277Z,20.66
2018-03-22T07:36:13.270Z,20.60
2018-03-22T07:37:13.269Z,20.61
2018-03-22T07:38:13.262Z,20.61
2018-03-22T07:39:13.264Z,20.60
2018-03-22T07:40:13.256Z,20.58
2018-03-22T07:41:13.246Z,20.72
2018-03-22T07:42:13.246Z,20.61
2018-03-22T07:43:13.239Z,20.78
2018-03-22T07:44:13.230Z,20.63
2018-03-22T07:45:13.229Z,20.73
2018-03-22T07:46:13.220Z,20.76
2018-03-22T07:47:13.225Z,20.69
2018-03-22T07:48:13.224Z,20.71
2018-03-22T07:49:13.215Z,20.68
2018-03-22T07:50:13.206Z,20.76
2018-03-22T07:51:13.197Z,20.61
2018-03-22T07:52:13.190Z,20.69
2018-03-22T07:53:13.206Z,20.68
2018-03-22T07:54:13.177Z,20.75
2018-03-22T07:55:13.178Z,20.81
2018-03-22T07:56:13.176Z,20.68
2018-03-22T07:57:13.169Z,20.78
2018-03-22T07:58:13.162Z,20.69
2018-03-22T07:59:13.171Z,20.75
2018-03-22T08:00:13.157Z,20.69
2018-03-22T08:01:13.147Z,20.72
2018-03-22T08:02:13.160Z,20.72
2018-03-22T08:03:13.145Z,20.73
2018-03-22T08:04:13.136Z,20.76
2018-03-22T08:05:13.125Z,20.82
2018-03-22T08:06:13.121Z,20.83
2018-03-22T08:07:13.115Z,20.75
2018-03-22T08:08:13.115Z,20.85
2018-03-22T08:09:13.106Z,20.73
2018-03-22T08:10:13.111Z,20.79
2018-03-22T08:11:13.100Z,20.81
2018-03-22T08:12:13.090Z,20.83
2018-03-22T08:13:13.080Z,20.75
2018-03-22T08:14:13.082Z,20.76
2018-03-22T08:15:13.074Z,20.78
2018-03-22T08:16:13.074Z,20.73
2018-03-22T08:17:13.071Z,20.76
2018-03-22T08:18:13.060Z,20.79
2018-03-22T08:19:13.064Z,20.85
2018-03-22T08:20:13.066Z,20.72
2018-03-22T08:21:13.061Z,20.76
2018-03-22T08:22:13.046Z,20.75
2018-03-22T08:23:13.050Z,20.76
2018-03-22T08:24:13.020Z,20.81
2018-03-22T08:25:13.032Z,20.76
2018-03-22T08:26:13.041Z,20.79
2018-03-22T08:27:13.020Z,20.82
2018-03-22T08:28:13.003Z,20.76
2018-03-22T08:29:13.002Z,20.75
2018-03-22T08:30:13.018Z,20.76
2018-03-22T08:31:13.006Z,20.75
2018-03-22T08:32:12.987Z,20.78
2018-03-22T08:33:12.981Z,20.81
2018-03-22T08:34:12.983Z,20.75
2018-03-22T08:35:12.997Z,20.71
2018-03-22T08:36:12.985Z,20.73
2018-03-22T08:37:12.984Z,20.76
2018-03-22T08:38:12.961Z,20.78
2018-03-22T08:39:12.962Z,20.69
2018-03-22T08:40:12.950Z,20.72
2018-03-22T08:41:12.994Z,20.69
2018-03-22T08:42:12.942Z,20.72
2018-03-22T08:43:12.935Z,20.72
2018-03-22T08:44:12.936Z,20.71
2018-03-22T08:45:12.932Z,20.72
2018-03-22T08:46:12.926Z,20.71
2018-03-22T08:47:12.930Z,20.72
2018-03-22T08:48:12.917Z,20.71
2018-03-22T08:49:12.915Z,20.72
2018-03-22T08:50:12.895Z,20.72
2018-03-22T08:51:12.902Z,20.78
2018-03-22T08:52:12.893Z,20.68
2018-03-22T08:53:12.896Z,20.72
2018-03-22T08:54:12.893Z,20.61
2018-03-22T08:55:12.882Z,20.69
2018-03-22T08:56:12.879Z,20.68
2018-03-22T08:57:12.865Z,20.64
2018-03-22T08:58:12.863Z,20.58
2018-03-22T08:59:12.861Z,20.64
2018-03-22T09:00:12.858Z,20.61
2018-03-22T09:01:12.849Z,20.69
2018-03-22T09:02:12.852Z,20.61
2018-03-22T09:03:12.841Z,20.61
2018-03-22T09:04:12.835Z,20.71
2018-03-22T09:05:12.826Z,20.68
2018-03-22T09:06:12.823Z,20.58
2018-03-22T09:07:12.818Z,20.63
2018-03-22T09:08:12.869Z,20.57
2018-03-22T09:09:12.807Z,20.60
2018-03-22T09:10:12.802Z,20.61
2018-03-22T09:11:12.807Z,20.60
2018-03-22T09:12:12.794Z,20.58
2018-03-22T09:13:12.793Z,20.68
2018-03-22T09:14:12.836Z,20.58
2018-03-22T09:15:12.783Z,20.60
2018-03-22T09:16:12.777Z,20.63
2018-03-22T09:17:12.776Z,20.60
2018-03-22T09:18:12.769Z,20.58
2018-03-22T09:19:12.760Z,20.68
2018-03-22T09:20:12.756Z,20.64
2018-03-22T09:21:12.756Z,20.60
2018-03-22T09:22:12.757Z,20.58
2018-03-22T09:23:12.746Z,20.61
2018-03-22T09:24:12.733Z,20.68
2018-03-22T09:25:12.723Z,20.69
2018-03-22T09:26:12.743Z,20.64
2018-03-22T09:27:12.719Z,20.60
2018-03-22T09:28:12.716Z,20.60
2018-03-22T09:29:12.718Z,20.72
2018-03-22T09:30:12.708Z,20.64
2018-03-22T09:31:12.699Z,20.56
2018-03-22T09:32:12.692Z,20.71
2018-03-22T09:33:12.689Z,20.73
2018-03-22T09:34:12.692Z,20.66
2018-03-22T09:35:12.688Z,20.61
2018-03-22T09:36:12.693Z,20.63
2018-03-22T09:37:12.678Z,20.75
2018-03-22T09:38:12.662Z,20.69
2018-03-22T09:39:12.682Z,20.60
2018-03-22T09:40:12.672Z,20.64
2018-03-22T09:41:12.657Z,20.64
2018-03-22T09:42:12.646Z,20.69
2018-03-22T09:43:12.638Z,20.75
2018-03-22T09:44:12.646Z,20.78
2018-03-22T09:45:12.632Z,20.73
2018-03-22T09:46:12.628Z,20.78
2018-03-22T09:47:12.621Z,20.72
2018-03-22T09:48:12.637Z,20.75
2018-03-22T09:49:12.659Z,20.76
2018-03-22T09:50:12.616Z,20.76
2018-03-22T09:51:12.604Z,20.72
2018-03-22T09:52:12.593Z,20.71
2018-03-22T09:53:12.610Z,20.71
2018-03-22T09:54:12.584Z,20.71
2018-03-22T09:55:12.588Z,20.69
2018-03-22T09:56:12.582Z,20.71
2018-03-22T09:57:12.569Z,20.68
2018-03-22T09:58:12.568Z,20.76
2018-03-22T09:59:12.562Z,20.81
2018-03-22T10:00:12.548Z,20.82
2018-03-22T10:01:12.558Z,20.73
2018-03-22T10:02:12.541Z,20.76
2018-03-22T10:03:12.567Z,20.76
2018-03-22T10:04:12.533Z,20.71
2018-03-22T10:05:12.539Z,20.68
2018-03-22T10:06:12.524Z,20.81
2018-03-22T10:07:12.522Z,20.79
2018-03-22T10:08:12.521Z,20.82
2018-03-22T10:09:12.519Z,20.88
2018-03-22T10:10:12.522Z,20.81
2018-03-22T10:11:12.503Z,20.78
2018-03-22T10:12:12.493Z,20.82
2018-03-22T10:13:12.494Z,20.79
2018-03-22T10:14:12.482Z,20.75
2018-03-22T10:15:12.483Z,20.76
2018-03-22T10:16:12.512Z,20.75
2018-03-22T10:17:12.465Z,20.75
2018-03-22T10:18:12.469Z,20.78
2018-03-22T10:19:12.469Z,20.75
2018-03-22T10:20:12.457Z,20.81
2018-03-22T10:21:12.471Z,20.81
2018-03-22T10:22:12.453Z,20.69
2018-03-22T10:23:12.439Z,20.75
2018-03-22T10:24:12.441Z,20.83
2018-03-22T10:25:12.429Z,20.81
2018-03-22T10:26:12.430Z,20.81
2018-03-22T10:27:12.428Z,20.73
2018-03-22T10:28:12.418Z,20.78
2018-03-22T10:29:12.413Z,20.82
2018-03-22T10:30:12.409Z,20.76
2018-03-22T10:31:12.399Z,20.76
2018-03-22T10:32:12.394Z,20.75
2018-03-22T10:33:12.393Z,20.78
2018-03-22T10:34:12.389Z,20.78
2018-03-22T10:35:12.398Z,20.73
2018-03-22T10:36:12.380Z,20.68
2018-03-22T10:37:12.377Z,20.76
2018-03-22T10:38:12.369Z,20.72
2018-03-22T10:39:12.368Z,20.75
2018-03-22T10:40:12.358Z,20.61
2018-03-22T10:41:12.351Z,20.72
2018-03-22T10:42:12.339Z,20.68
2018-03-22T10:43:12.377Z,20.78
2018-03-22T10:44:12.330Z,20.68
2018-03-22T10:45:12.334Z,20.66
2018-03-22T10:46:12.325Z,20.71
2018-03-22T10:47:12.335Z,20.68
2018-03-22T10:48:12.332Z,20.60
2018-03-22T10:49:12.317Z,20.71
2018-03-22T10:50:12.309Z,20.63
2018-03-22T10:51:12.309Z,20.73
2018-03-22T10:52:12.307Z,20.69
2018-03-22T10:53:12.301Z,20.72
2018-03-22T10:54:12.290Z,20.66
2018-03-22T10:55:12.289Z,20.61
2018-03-22T10:56:12.277Z,20.61
2018-03-22T10:57:12.298Z,20.71
2018-03-22T10:58:12.279Z,20.68
2018-03-22T10:59:12.274Z,20.75
2018-03-22T11:00:12.274Z,20.73
2018-03-22T11:01:12.275Z,20.61
2018-03-22T11:02:12.249Z,20.66
2018-03-22T11:03:12.241Z,20.61
2018-03-22T11:04:12.240Z,20.60
2018-03-22T11:05:12.235Z,20.60
2018-03-22T11:06:12.229Z,20.68
2018-03-22T11:07:12.230Z,20.68
2018-03-22T11:08:12.216Z,20.73
2018-03-22T11:09:12.213Z,20.68
2018-03-22T11:10:12.209Z,20.60
2018-03-22T11:11:12.215Z,20.69
2018-03-22T11:12:12.213Z,20.60
2018-03-22T11:13:12.201Z,20.72
2018-03-22T11:14:12.185Z,20.72
2018-03-22T11:15:12.211Z,20.69
2018-03-22T11:16:12.185Z,20.66
2018-03-22T11:17:12.185Z,20.60
2018-03-22T11:18:12.174Z,20.73
2018-03-22T11:19:12.166Z,20.76
2018-03-22T11:20:12.165Z,20.75
2018-03-22T11:21:12.153Z,20.72
2018-03-22T11:22:12.159Z,20.71
2018-03-22T11:23:12.144Z,20.73
2018-03-22T11:24:12.141Z,20.68
2018-03-22T11:25:12.141Z,20.79
2018-03-22T11:26:12.141Z,20.82
2018-03-22T11:27:12.143Z,20.75
2018-03-22T11:28:12.136Z,20.75
2018-03-22T11:29:12.115Z,20.73
2018-03-22T11:30:12.111Z,20.75
2018-03-22T11:31:12.109Z,20.73
2018-03-22T11:32:12.105Z,20.76
2018-03-22T11:33:12.091Z,20.81
2018-03-22T11:34:12.100Z,20.73
2018-03-22T11:35:12.085Z,20.83
2018-03-22T11:36:12.099Z,20.81
2018-03-22T11:37:12.090Z,20.79
2018-03-22T11:38:12.073Z,20.88
2018-03-22T11:39:12.060Z,20.82
2018-03-22T11:40:12.076Z,20.88
2018-03-22T11:41:12.060Z,20.83
2018-03-22T11:42:12.059Z,20.83
2018-03-22T11:43:12.055Z,20.81
2018-03-22T11:44:12.039Z,20.81
2018-03-22T11:45:12.056Z,20.85
2018-03-22T11:46:12.032Z,20.79
2018-03-22T11:47:12.037Z,20.90
2018-03-22T11:48:12.011Z,20.87
2018-03-22T11:49:12.024Z,20.85
2018-03-22T11:50:12.010Z,20.83
2018-03-22T11:51:12.010Z,20.82
2018-03-22T11:52:12.001Z,20.85
2018-03-22T11:53:12.011Z,20.79
2018-03-22T11:54:11.992Z,20.83
2018-03-22T11:55:11.981Z,20.83
2018-03-22T11:56:12.000Z,20.83
2018-03-22T11:57:11.969Z,20.88
2018-03-22T11:58:11.976Z,20.90
2018-03-22T11:59:11.964Z,20.82
2018-03-22T12:00:11.970Z,20.72
2018-03-22T12:01:11.958Z,20.82
2018-03-22T12:02:11.971Z,20.75
2018-03-22T12:03:11.951Z,20.83
2018-03-22T12:04:11.971Z,20.75
2018-03-22T12:05:11.939Z,20.81
2018-03-22T12:06:11.936Z,20.87
2018-03-22T12:07:11.940Z,20.76
2018-03-22T12:08:11.920Z,20.81
2018-03-22T12:09:11.917Z,20.82
2018-03-22T12:10:11.921Z,20.71
2018-03-22T12:11:11.927Z,20.81
2018-03-22T12:12:11.908Z,20.72
2018-03-22T12:13:11.905Z,20.83
2018-03-22T12:14:11.905Z,20.83
2018-03-22T12:15:11.893Z,20.78
2018-03-22T12:16:11.884Z,20.72
2018-03-22T12:17:11.889Z,20.81
2018-03-22T12:18:11.871Z,20.73
2018-03-22T12:19:11.876Z,20.71
2018-03-22T12:20:11.861Z,20.82
2018-03-22T12:21:11.863Z,20.78
2018-03-22T12:22:11.851Z,20.82
2018-03-22T12:23:11.891Z,20.69
2018-03-22T12:24:11.872Z,20.75
2018-03-22T12:25:11.836Z,20.69
2018-03-22T12:26:11.848Z,20.69
2018-03-22T12:27:11.836Z,20.68
2018-03-22T12:28:11.834Z,20.76
2018-03-22T12:29:11.819Z,20.61
2018-03-22T12:30:11.820Z,20.76
2018-03-22T12:31:11.804Z,20.66
2018-03-22T12:32:11.814Z,20.60
2018-03-22T12:33:11.801Z,20.71
2018-03-22T12:34:11.794Z,20.61
2018-03-22T12:35:11.791Z,20.61
2018-03-22T12:36:11.788Z,20.71
2018-03-22T12:37:11.787Z,20.71
2018-03-22T12:38:11.772Z,20.75
2018-03-22T12:39:11.778Z,20.61
2018-03-22T12:40:11.758Z,20.68
2018-03-22T12:41:11.763Z,20.68
2018-03-22T12:42:11.756Z,20.64
2018-03-22T12:43:11.805Z,20.73
2018-03-22T12:44:11.742Z,20.61
2018-03-22T12:45:11.736Z,20.73
2018-03-22T12:46:11.731Z,20.57
2018-03-22T12:47:11.752Z,20.71
2018-03-22T12:48:11.757Z,20.66
2018-03-22T12:49:11.725Z,20.69
2018-03-22T12:50:11.721Z,20.73
2018-03-22T12:51:11.716Z,20.66
2018-03-22T12:52:11.710Z,20.58